createdAt,value
2023-05-04T00:23:39.954Z,60.06
2023-05-04T00:55:26.211Z,60.55
2023-05-04T00:59:39.808Z,61.81
2023-05-04T01:12:45.557Z,61.01
2023-05-04T01:16:50.922Z,59.52
2023-05-04T01:20:53.873Z,58.86
2023-05-04T01:24:48.989Z,60.42
2023-05-04T01:28:38.847Z,61.75
2023-05-04T01:32:14.021Z,64.20
2023-05-04T01:36:13.679Z,63.60
2023-05-04T01:39:35.897Z,62.15
2023-05-04T01:43:32.515Z,60.60
2023-05-04T01:48:02.231Z,58.94
2023-05-04T01:51:23.533Z,58.72
2023-05-04T01:55:19.785Z,60.37
2023-05-04T01:58:57.782Z,62.19
2023-05-04T02:02:55.035Z,64.28
2023-05-04T02:06:12.369Z,63.14
2023-05-04T02:09:41.297Z,61.63
2023-05-04T02:13:10.829Z,60.45
2023-05-04T02:16:25.271Z,58.94
2023-05-04T02:20:16.774Z,58.70
2023-05-04T02:23:45.404Z,60.37
2023-05-04T02:27:37.018Z,61.91
2023-05-04T02:31:48.444Z,64.27
2023-05-04T02:35:17.757Z,63.09
2023-05-04T02:38:48.072Z,61.51
2023-05-04T02:42:15.154Z,60.01
2023-05-04T02:46:00.881Z,58.93
2023-05-04T02:49:20.532Z,60.37
2023-05-04T02:52:59.566Z,61.93
2023-05-04T02:56:20.366Z,64.38
2023-05-04T02:59:16.859Z,63.64
2023-05-04T03:03:04.145Z,61.93
2023-05-04T03:06:42.985Z,60.44
2023-05-04T03:10:13.202Z,59.13
2023-05-04T03:13:48.379Z,58.80
2023-05-04T03:17:24.675Z,60.70
2023-05-04T03:20:24.596Z,62.93
2023-05-04T03:23:45.277Z,65.15
2023-05-04T03:26:57.491Z,64.16
2023-05-04T03:30:16.371Z,62.92
2023-05-04T03:33:44.185Z,61.86
2023-05-04T03:36:35.894Z,60.93
2023-05-04T03:39:53.922Z,59.77
2023-05-04T03:43:15.919Z,58.91
2023-05-04T03:46:15.437Z,60.46
2023-05-04T03:50:05.356Z,62.09
2023-05-04T03:54:17.321Z,64.15
2023-05-04T03:57:58.213Z,62.83
2023-05-04T04:01:32.805Z,61.48
2023-05-04T04:04:42.087Z,59.98
2023-05-04T04:08:10.908Z,58.81
2023-05-04T04:11:17.070Z,59.97
2023-05-04T04:14:37.777Z,61.57
2023-05-04T04:18:37.186Z,64.33
2023-05-04T04:22:56.936Z,63.56
2023-05-04T04:27:12.666Z,61.88
2023-05-04T04:30:32.575Z,60.50
2023-05-04T14:01:17.472Z,15.36
2023-05-04T14:03:46.903Z,15.71
2023-05-04T14:06:15.475Z,15.10
2023-05-04T14:08:44.045Z,14.82
2023-05-04T14:11:12.507Z,14.85
2023-05-04T14:13:41.068Z,14.72
2023-05-04T14:16:10.470Z,14.54
2023-05-04T14:18:56.905Z,14.38
2023-05-04T14:22:22.496Z,14.80
2023-05-04T14:25:46.522Z,14.34
2023-05-04T14:28:15.926Z,14.25
2023-05-04T14:31:25.332Z,14.16
2023-05-04T14:34:13.320Z,14.44
2023-05-04T15:15:54.918Z,13.97
2023-05-04T15:18:24.364Z,14.15
2023-05-04T15:20:52.980Z,13.74
2023-05-04T15:23:21.785Z,13.76
2023-05-04T15:25:50.307Z,13.21
2023-05-04T15:28:22.818Z,13.18
2023-05-04T15:30:51.342Z,13.03
2023-05-04T15:33:19.847Z,13.32
2023-05-04T15:35:48.420Z,13.48
2023-05-04T15:38:18.344Z,13.63
2023-05-04T15:40:46.806Z,13.56
2023-05-04T15:43:15.520Z,12.89
2023-05-04T15:45:44.034Z,13.22
2023-05-04T15:48:12.655Z,12.82
2023-05-04T15:51:19.185Z,12.97
